Balance de Beauraing

Balances > Beauraing > Ce mois-ci

Ce mois-ci

Voir les données pour : cette semaine | hier

Graphiques

  Température (°C)   Humidité (%)   Poids (kg)   Pluie (l/m²)



Journal

Désolé, aucune information concernant cette période n'est disponible.

Tableau

Date Température (°C)Humidité (%)Pluie (l/m²)Poids (kg)
minmaxmoyminmaxmoypoidsvariation
24/07/1917,139,731,2288046,8041,40,0
25/07/1920,940,233,1257944,5041,2-0,2
26/07/1923,136,531,0336847,4041,20,0
27/07/1920,021,621,0768782,1441,3+0,1
28/07/1917,620,418,8718981,8141,4+0,1
29/07/1911,927,621,7379158,6041,1-0,3
30/07/1912,926,922,6438656,2041,0-0,1
31/07/1916,622,820,0517761,4041,00,0
01/08/1913,525,621,2488562,0038,4-2,6
02/08/1915,027,722,2458763,4038,3-0,1
03/08/1918,423,020,5578269,3038,4+0,1
04/08/1912,829,623,2388958,1038,2-0,2
05/08/1919,127,524,1478360,1038,20,0
06/08/1918,824,921,6588672,61063,6+25,4
07/08/1916,725,220,7559074,4363,60,0
08/08/1912,825,620,4579071,3063,5-0,1
09/08/1916,922,520,9709082,41663,6+0,1
10/08/1917,824,922,1498262,7164,9+1,3
11/08/1912,521,118,4578266,7038,2-26,7
12/08/1914,023,919,1558768,5038,1-0,1
13/08/1913,021,017,1538470,5038,0-0,1
14/08/199,223,717,8549270,7037,8-0,2
15/08/1916,520,718,6688981,3937,9+0,1
16/08/1914,923,019,7578769,4037,7-0,2
17/08/1917,620,419,0758883,5137,70,0
18/08/1915,720,718,8759486,22137,70,0
19/08/1911,522,618,9519065,6037,5-0,2
20/08/199,822,717,6538968,1037,4-0,1
21/08/198,623,717,9468965,1035,0-2,4